sensor_id;sensor_type;location;lat;lon;timestamp;P1;durP1;ratioP1;P2;durP2;ratioP2
1446;SDS011;717;51.522;7.266;2023-06-01T00:00:37;6.63;;;3.70;;
1446;SDS011;717;51.522;7.266;2023-06-01T00:03:06;6.95;;;4.00;;
1446;SDS011;717;51.522;7.266;2023-06-01T00:05:37;7.45;;;3.50;;
1446;SDS011;717;51.522;7.266;2023-06-01T00:08:05;5.07;;;4.07;;
1446;SDS011;717;51.522;7.266;2023-06-01T00:10:34;6.15;;;3.70;;
1446;SDS011;717;51.522;7.266;2023-06-01T00:13:02;5.35;;;3.55;;
1446;SDS011;717;51.522;7.266;2023-06-01T00:15:31;4.72;;;3.25;;
1446;SDS011;717;51.522;7.266;2023-06-01T00:18:00;4.05;;;3.35;;
1446;SDS011;717;51.522;7.266;2023-06-01T00:20:30;7.32;;;3.78;;
1446;SDS011;717;51.522;7.266;2023-06-01T00:23:01;4.47;;;3.45;;
1446;SDS011;717;51.522;7.266;2023-06-01T00:25:30;4.68;;;3.65;;
1446;SDS011;717;51.522;7.266;2023-06-01T00:27:59;5.78;;;3.90;;
1446;SDS011;717;51.522;7.266;2023-06-01T00:30:27;4.57;;;3.75;;
1446;SDS011;717;51.522;7.266;2023-06-01T00:32:56;8.10;;;4.30;;
1446;SDS011;717;51.522;7.266;2023-06-01T00:35:24;9.35;;;4.10;;
1446;SDS011;717;51.522;7.266;2023-06-01T00:37:53;6.47;;;3.88;;
1446;SDS011;717;51.522;7.266;2023-06-01T00:40:24;7.68;;;4.22;;
1446;SDS011;717;51.522;7.266;2023-06-01T00:42:53;5.68;;;4.35;;
1446;SDS011;717;51.522;7.266;2023-06-01T00:45:21;5.50;;;4.32;;
1446;SDS011;717;51.522;7.266;2023-06-01T00:47:50;5.70;;;4.18;;
1446;SDS011;717;51.522;7.266;2023-06-01T00:50:19;6.05;;;4.28;;
1446;SDS011;717;51.522;7.266;2023-06-01T00:52:49;6.95;;;4.60;;
1446;SDS011;717;51.522;7.266;2023-06-01T00:55:19;5.75;;;4.72;;
1446;SDS011;717;51.522;7.266;2023-06-01T00:57:51;5.97;;;4.57;;
1446;SDS011;717;51.522;7.266;2023-06-01T01:00:20;6.65;;;5.55;;
1446;SDS011;717;51.522;7.266;2023-06-01T01:02:49;6.00;;;4.72;;
1446;SDS011;717;51.522;7.266;2023-06-01T01:05:18;6.30;;;4.97;;
1446;SDS011;717;51.522;7.266;2023-06-01T01:07:53;7.57;;;5.75;;
1446;SDS011;717;51.522;7.266;2023-06-01T01:10:29;7.22;;;4.88;;
1446;SDS011;717;51.522;7.266;2023-06-01T01:13:05;5.28;;;4.72;;
1446;SDS011;717;51.522;7.266;2023-06-01T01:15:40;7.57;;;5.70;;
1446;SDS011;717;51.522;7.266;2023-06-01T01:18:16;7.45;;;5.50;;
1446;SDS011;717;51.522;7.266;2023-06-01T01:20:50;7.75;;;6.47;;
1446;SDS011;717;51.522;7.266;2023-06-01T01:23:36;7.05;;;5.75;;
1446;SDS011;717;51.522;7.266;2023-06-01T01:26:13;7.40;;;6.07;;
1446;SDS011;717;51.522;7.266;2023-06-01T01:28:52;8.15;;;6.30;;
1446;SDS011;717;51.522;7.266;2023-06-01T01:31:26;8.57;;;6.28;;
1446;SDS011;717;51.522;7.266;2023-06-01T01:33:56;8.38;;;6.10;;
1446;SDS011;717;51.522;7.266;2023-06-01T01:36:25;8.93;;;6.90;;
1446;SDS011;717;51.522;7.266;2023-06-01T01:38:55;7.18;;;5.60;;
1446;SDS011;717;51.522;7.266;2023-06-01T01:41:23;9.50;;;6.40;;
1446;SDS011;717;51.522;7.266;2023-06-01T01:43:55;6.88;;;6.18;;
1446;SDS011;717;51.522;7.266;2023-06-01T01:46:25;9.75;;;6.80;;
1446;SDS011;717;51.522;7.266;2023-06-01T01:48:58;7.82;;;6.78;;
1446;SDS011;717;51.522;7.266;2023-06-01T01:51:35;8.23;;;6.75;;
1446;SDS011;717;51.522;7.266;2023-06-01T01:54:07;9.98;;;7.10;;
1446;SDS011;717;51.522;7.266;2023-06-01T01:56:38;9.13;;;7.13;;
1446;SDS011;717;51.522;7.266;2023-06-01T01:59:09;10.57;;;7.03;;
1446;SDS011;717;51.522;7.266;2023-06-01T02:01:38;7.70;;;6.72;;
1446;SDS011;717;51.522;7.266;2023-06-01T02:04:10;9.80;;;6.90;;
1446;SDS011;717;51.522;7.266;2023-06-01T02:06:38;8.13;;;6.78;;
1446;SDS011;717;51.522;7.266;2023-06-01T02:09:07;9.85;;;7.15;;
1446;SDS011;717;51.522;7.266;2023-06-01T02:11:35;9.82;;;7.35;;
1446;SDS011;717;51.522;7.266;2023-06-01T02:14:04;7.55;;;6.85;;
1446;SDS011;717;51.522;7.266;2023-06-01T02:16:36;11.48;;;7.70;;
1446;SDS011;717;51.522;7.266;2023-06-01T02:19:04;11.02;;;7.80;;
1446;SDS011;717;51.522;7.266;2023-06-01T02:21:36;10.40;;;7.70;;
1446;SDS011;717;51.522;7.266;2023-06-01T02:24:04;9.45;;;8.05;;
1446;SDS011;717;51.522;7.266;2023-06-01T02:26:34;9.07;;;8.07;;
1446;SDS011;717;51.522;7.266;2023-06-01T02:29:02;9.27;;;7.80;;
1446;SDS011;717;51.522;7.266;2023-06-01T02:31:31;12.05;;;8.45;;
1446;SDS011;717;51.522;7.266;2023-06-01T02:34:03;11.77;;;8.93;;
1446;SDS011;717;51.522;7.266;2023-06-01T02:36:31;8.50;;;7.57;;
1446;SDS011;717;51.522;7.266;2023-06-01T02:39:00;9.85;;;8.32;;
1446;SDS011;717;51.522;7.266;2023-06-01T02:41:28;10.85;;;8.20;;
1446;SDS011;717;51.522;7.266;2023-06-01T02:43:57;10.88;;;9.30;;
1446;SDS011;717;51.522;7.266;2023-06-01T02:46:25;15.02;;;9.95;;
1446;SDS011;717;51.522;7.266;2023-06-01T02:48:54;11.73;;;9.80;;
1446;SDS011;717;51.522;7.266;2023-06-01T02:51:25;11.93;;;10.18;;
1446;SDS011;717;51.522;7.266;2023-06-01T02:53:53;12.52;;;10.25;;
1446;SDS011;717;51.522;7.266;2023-06-01T02:56:22;12.88;;;9.70;;
1446;SDS011;717;51.522;7.266;2023-06-01T02:58:51;12.48;;;9.82;;
1446;SDS011;717;51.522;7.266;2023-06-01T03:01:21;13.45;;;10.50;;
1446;SDS011;717;51.522;7.266;2023-06-01T03:03:49;13.82;;;10.25;;
1446;SDS011;717;51.522;7.266;2023-06-01T03:06:19;12.25;;;9.85;;
1446;SDS011;717;51.522;7.266;2023-06-01T03:08:53;12.82;;;9.93;;
1446;SDS011;717;51.522;7.266;2023-06-01T03:11:21;11.80;;;9.38;;
1446;SDS011;717;51.522;7.266;2023-06-01T03:13:50;10.68;;;9.48;;
1446;SDS011;717;51.522;7.266;2023-06-01T03:16:18;12.10;;;10.80;;
1446;SDS011;717;51.522;7.266;2023-06-01T03:18:47;13.40;;;12.00;;
1446;SDS011;717;51.522;7.266;2023-06-01T03:21:15;13.23;;;11.82;;
1446;SDS011;717;51.522;7.266;2023-06-01T03:23:44;11.50;;;10.32;;
1446;SDS011;717;51.522;7.266;2023-06-01T03:26:15;11.20;;;10.00;;
1446;SDS011;717;51.522;7.266;2023-06-01T03:28:46;12.68;;;10.40;;
1446;SDS011;717;51.522;7.266;2023-06-01T03:31:14;12.00;;;10.02;;
1446;SDS011;717;51.522;7.266;2023-06-01T03:33:44;11.40;;;9.68;;
1446;SDS011;717;51.522;7.266;2023-06-01T03:36:12;11.02;;;9.40;;
1446;SDS011;717;51.522;7.266;2023-06-01T03:38:41;12.32;;;9.48;;
1446;SDS011;717;51.522;7.266;2023-06-01T03:41:10;12.68;;;9.65;;
1446;SDS011;717;51.522;7.266;2023-06-01T03:43:41;10.80;;;9.57;;
1446;SDS011;717;51.522;7.266;2023-06-01T03:46:09;11.30;;;9.45;;
1446;SDS011;717;51.522;7.266;2023-06-01T03:48:38;10.90;;;9.20;;
1446;SDS011;717;51.522;7.266;2023-06-01T03:51:06;13.45;;;11.25;;
1446;SDS011;717;51.522;7.266;2023-06-01T03:53:35;14.73;;;10.80;;
1446;SDS011;717;51.522;7.266;2023-06-01T03:56:04;12.98;;;11.48;;
1446;SDS011;717;51.522;7.266;2023-06-01T03:58:33;12.65;;;11.27;;
1446;SDS011;717;51.522;7.266;2023-06-01T04:01:04;11.70;;;10.07;;
1446;SDS011;717;51.522;7.266;2023-06-01T04:03:33;13.57;;;10.77;;
1446;SDS011;717;51.522;7.266;2023-06-01T04:06:01;14.05;;;9.90;;
1446;SDS011;717;51.522;7.266;2023-06-01T04:08:37;13.98;;;10.30;;
1446;SDS011;717;51.522;7.266;2023-06-01T04:11:12;12.65;;;10.23;;
1446;SDS011;717;51.522;7.266;2023-06-01T04:13:41;12.60;;;10.57;;
1446;SDS011;717;51.522;7.266;2023-06-01T04:16:12;13.27;;;11.88;;
1446;SDS011;717;51.522;7.266;2023-06-01T04:18:41;18.10;;;15.73;;
1446;SDS011;717;51.522;7.266;2023-06-01T04:21:09;19.13;;;16.77;;
1446;SDS011;717;51.522;7.266;2023-06-01T04:23:38;16.65;;;14.40;;
1446;SDS011;717;51.522;7.266;2023-06-01T04:26:07;18.23;;;15.55;;
1446;SDS011;717;51.522;7.266;2023-06-01T04:28:36;18.45;;;14.10;;
1446;SDS011;717;51.522;7.266;2023-06-01T04:31:08;16.10;;;13.05;;
1446;SDS011;717;51.522;7.266;2023-06-01T04:33:42;14.85;;;12.68;;
1446;SDS011;717;51.522;7.266;2023-06-01T04:36:17;12.95;;;11.00;;
1446;SDS011;717;51.522;7.266;2023-06-01T04:38:46;13.45;;;11.30;;
1446;SDS011;717;51.522;7.266;2023-06-01T04:41:16;13.95;;;11.15;;
1446;SDS011;717;51.522;7.266;2023-06-01T04:43:45;15.02;;;11.00;;
1446;SDS011;717;51.522;7.266;2023-06-01T04:46:19;12.27;;;10.20;;
1446;SDS011;717;51.522;7.266;2023-06-01T04:48:50;13.15;;;11.20;;
1446;SDS011;717;51.522;7.266;2023-06-01T04:51:20;12.73;;;10.82;;
1446;SDS011;717;51.522;7.266;2023-06-01T04:53:50;12.15;;;10.93;;
1446;SDS011;717;51.522;7.266;2023-06-01T04:56:20;11.57;;;9.73;;
1446;SDS011;717;51.522;7.266;2023-06-01T04:58:49;12.35;;;9.68;;
1446;SDS011;717;51.522;7.266;2023-06-01T05:01:21;13.35;;;10.40;;
1446;SDS011;717;51.522;7.266;2023-06-01T05:03:50;14.60;;;10.50;;
1446;SDS011;717;51.522;7.266;2023-06-01T05:06:20;14.07;;;11.98;;
1446;SDS011;717;51.522;7.266;2023-06-01T05:08:50;13.48;;;10.90;;
1446;SDS011;717;51.522;7.266;2023-06-01T05:11:18;14.15;;;11.75;;
1446;SDS011;717;51.522;7.266;2023-06-01T05:13:47;11.98;;;10.55;;
1446;SDS011;717;51.522;7.266;2023-06-01T05:16:16;13.45;;;10.95;;
1446;SDS011;717;51.522;7.266;2023-06-01T05:18:48;15.30;;;10.80;;
1446;SDS011;717;51.522;7.266;2023-06-01T05:21:16;14.98;;;10.82;;
1446;SDS011;717;51.522;7.266;2023-06-01T05:23:45;14.52;;;12.98;;
1446;SDS011;717;51.522;7.266;2023-06-01T05:26:13;15.13;;;13.13;;
1446;SDS011;717;51.522;7.266;2023-06-01T05:28:42;16.67;;;14.98;;
1446;SDS011;717;51.522;7.266;2023-06-01T05:31:10;17.45;;;15.65;;
1446;SDS011;717;51.522;7.266;2023-06-01T05:33:40;14.32;;;12.90;;
1446;SDS011;717;51.522;7.266;2023-06-01T05:36:11;13.93;;;12.45;;
1446;SDS011;717;51.522;7.266;2023-06-01T05:38:39;12.65;;;11.07;;
1446;SDS011;717;51.522;7.266;2023-06-01T05:41:08;12.65;;;11.07;;
1446;SDS011;717;51.522;7.266;2023-06-01T05:43:36;12.57;;;10.32;;
1446;SDS011;717;51.522;7.266;2023-06-01T05:46:05;13.82;;;12.27;;
1446;SDS011;717;51.522;7.266;2023-06-01T05:48:34;13.00;;;10.88;;
1446;SDS011;717;51.522;7.266;2023-06-01T05:51:02;13.43;;;8.93;;
1446;SDS011;717;51.522;7.266;2023-06-01T05:53:34;9.90;;;8.82;;
1446;SDS011;717;51.522;7.266;2023-06-01T05:56:02;12.45;;;8.35;;
1446;SDS011;717;51.522;7.266;2023-06-01T05:58:31;10.90;;;8.30;;
1446;SDS011;717;51.522;7.266;2023-06-01T06:00:59;11.13;;;8.18;;
1446;SDS011;717;51.522;7.266;2023-06-01T06:03:28;10.23;;;8.75;;
1446;SDS011;717;51.522;7.266;2023-06-01T06:05:57;9.48;;;7.70;;
1446;SDS011;717;51.522;7.266;2023-06-01T06:08:25;10.68;;;8.82;;
1446;SDS011;717;51.522;7.266;2023-06-01T06:10:56;13.02;;;9.43;;
1446;SDS011;717;51.522;7.266;2023-06-01T06:13:25;11.85;;;8.80;;
1446;SDS011;717;51.522;7.266;2023-06-01T06:15:53;12.48;;;8.80;;
1446;SDS011;717;51.522;7.266;2023-06-01T06:18:22;12.25;;;9.95;;
1446;SDS011;717;51.522;7.266;2023-06-01T06:20:51;12.93;;;10.60;;
1446;SDS011;717;51.522;7.266;2023-06-01T06:23:19;12.02;;;9.93;;
1446;SDS011;717;51.522;7.266;2023-06-01T06:25:48;11.02;;;9.93;;
1446;SDS011;717;51.522;7.266;2023-06-01T06:28:20;11.10;;;9.73;;
1446;SDS011;717;51.522;7.266;2023-06-01T06:30:48;14.95;;;10.98;;
1446;SDS011;717;51.522;7.266;2023-06-01T06:33:16;14.70;;;11.80;;
1446;SDS011;717;51.522;7.266;2023-06-01T06:35:45;12.68;;;11.05;;
1446;SDS011;717;51.522;7.266;2023-06-01T06:38:13;11.20;;;10.05;;
1446;SDS011;717;51.522;7.266;2023-06-01T06:40:42;11.82;;;9.30;;
1446;SDS011;717;51.522;7.266;2023-06-01T06:43:11;13.35;;;9.13;;
1446;SDS011;717;51.522;7.266;2023-06-01T06:45:42;11.55;;;9.43;;
1446;SDS011;717;51.522;7.266;2023-06-01T06:48:11;10.85;;;9.38;;
1446;SDS011;717;51.522;7.266;2023-06-01T06:50:39;11.63;;;9.40;;
1446;SDS011;717;51.522;7.266;2023-06-01T06:53:09;11.20;;;8.85;;
1446;SDS011;717;51.522;7.266;2023-06-01T06:55:38;13.63;;;8.55;;
1446;SDS011;717;51.522;7.266;2023-06-01T06:58:07;11.25;;;7.75;;
1446;SDS011;717;51.522;7.266;2023-06-01T07:00:37;9.43;;;8.07;;
1446;SDS011;717;51.522;7.266;2023-06-01T07:03:08;9.25;;;7.80;;
1446;SDS011;717;51.522;7.266;2023-06-01T07:05:38;8.43;;;7.53;;
1446;SDS011;717;51.522;7.266;2023-06-01T07:08:06;10.35;;;8.05;;
1446;SDS011;717;51.522;7.266;2023-06-01T07:10:35;12.20;;;7.90;;
1446;SDS011;717;51.522;7.266;2023-06-01T07:13:03;9.75;;;8.40;;
1446;SDS011;717;51.522;7.266;2023-06-01T07:15:32;11.25;;;8.05;;
1446;SDS011;717;51.522;7.266;2023-06-01T07:18:00;9.85;;;8.73;;
1446;SDS011;717;51.522;7.266;2023-06-01T07:20:31;9.27;;;7.70;;
1446;SDS011;717;51.522;7.266;2023-06-01T07:23:00;9.70;;;7.20;;
1446;SDS011;717;51.522;7.266;2023-06-01T07:25:28;10.00;;;8.00;;
1446;SDS011;717;51.522;7.266;2023-06-01T07:27:57;10.20;;;7.55;;
1446;SDS011;717;51.522;7.266;2023-06-01T07:30:32;9.80;;;8.40;;
1446;SDS011;717;51.522;7.266;2023-06-01T07:33:00;10.60;;;8.57;;
1446;SDS011;717;51.522;7.266;2023-06-01T07:35:32;12.02;;;8.27;;
1446;SDS011;717;51.522;7.266;2023-06-01T07:38:01;9.23;;;7.47;;
1446;SDS011;717;51.522;7.266;2023-06-01T07:40:29;9.90;;;7.53;;
1446;SDS011;717;51.522;7.266;2023-06-01T07:42:58;9.98;;;8.02;;
1446;SDS011;717;51.522;7.266;2023-06-01T07:45:26;10.15;;;7.55;;
1446;SDS011;717;51.522;7.266;2023-06-01T07:47:55;8.80;;;7.20;;
1446;SDS011;717;51.522;7.266;2023-06-01T07:50:23;8.50;;;6.80;;
1446;SDS011;717;51.522;7.266;2023-06-01T07:52:58;9.52;;;7.35;;
1446;SDS011;717;51.522;7.266;2023-06-01T07:55:27;10.18;;;7.68;;
1446;SDS011;717;51.522;7.266;2023-06-01T07:57:56;9.07;;;7.90;;
1446;SDS011;717;51.522;7.266;2023-06-01T08:00:26;10.15;;;7.90;;
1446;SDS011;717;51.522;7.266;2023-06-01T08:02:54;10.75;;;7.97;;
1446;SDS011;717;51.522;7.266;2023-06-01T08:05:24;10.70;;;7.72;;
1446;SDS011;717;51.522;7.266;2023-06-01T08:07:53;10.45;;;7.38;;
1446;SDS011;717;51.522;7.266;2023-06-01T08:10:24;10.90;;;7.43;;
1446;SDS011;717;51.522;7.266;2023-06-01T08:12:53;11.13;;;8.73;;
1446;SDS011;717;51.522;7.266;2023-06-01T08:15:22;12.85;;;8.88;;
1446;SDS011;717;51.522;7.266;2023-06-01T08:17:52;10.07;;;7.70;;
1446;SDS011;717;51.522;7.266;2023-06-01T08:20:20;10.80;;;8.35;;
1446;SDS011;717;51.522;7.266;2023-06-01T08:22:50;9.70;;;7.97;;
1446;SDS011;717;51.522;7.266;2023-06-01T08:25:19;9.98;;;7.97;;
1446;SDS011;717;51.522;7.266;2023-06-01T08:27:50;9.75;;;7.78;;
1446;SDS011;717;51.522;7.266;2023-06-01T08:30:19;11.07;;;7.90;;
1446;SDS011;717;51.522;7.266;2023-06-01T08:32:47;13.18;;;8.98;;
1446;SDS011;717;51.522;7.266;2023-06-01T08:35:17;13.25;;;9.50;;
1446;SDS011;717;51.522;7.266;2023-06-01T08:37:46;9.65;;;8.05;;
1446;SDS011;717;51.522;7.266;2023-06-01T08:40:15;11.98;;;9.80;;
1446;SDS011;717;51.522;7.266;2023-06-01T08:42:52;10.30;;;8.15;;
1446;SDS011;717;51.522;7.266;2023-06-01T08:45:25;11.25;;;8.07;;
1446;SDS011;717;51.522;7.266;2023-06-01T08:47:54;12.38;;;8.85;;
1446;SDS011;717;51.522;7.266;2023-06-01T08:50:26;10.80;;;8.32;;
1446;SDS011;717;51.522;7.266;2023-06-01T08:52:55;14.18;;;8.93;;
1446;SDS011;717;51.522;7.266;2023-06-01T08:55:26;9.90;;;8.73;;
1446;SDS011;717;51.522;7.266;2023-06-01T08:57:57;12.82;;;8.70;;
1446;SDS011;717;51.522;7.266;2023-06-01T09:00:26;11.32;;;8.75;;
1446;SDS011;717;51.522;7.266;2023-06-01T09:02:58;10.98;;;8.77;;
1446;SDS011;717;51.522;7.266;2023-06-01T09:05:27;10.95;;;8.38;;
1446;SDS011;717;51.522;7.266;2023-06-01T09:07:56;11.20;;;8.27;;
1446;SDS011;717;51.522;7.266;2023-06-01T09:10:25;12.48;;;9.57;;
1446;SDS011;717;51.522;7.266;2023-06-01T09:12:54;12.30;;;9.07;;
1446;SDS011;717;51.522;7.266;2023-06-01T09:15:26;10.65;;;8.63;;
1446;SDS011;717;51.522;7.266;2023-06-01T09:18:04;9.63;;;8.57;;
1446;SDS011;717;51.522;7.266;2023-06-01T09:20:35;13.18;;;9.13;;
1446;SDS011;717;51.522;7.266;2023-06-01T09:23:04;11.25;;;8.30;;
1446;SDS011;717;51.522;7.266;2023-06-01T09:25:33;10.93;;;7.97;;
1446;SDS011;717;51.522;7.266;2023-06-01T09:28:02;12.27;;;8.43;;
1446;SDS011;717;51.522;7.266;2023-06-01T09:30:40;8.68;;;7.68;;
1446;SDS011;717;51.522;7.266;2023-06-01T09:34:04;12.13;;;9.25;;
1446;SDS011;717;51.522;7.266;2023-06-01T09:36:33;13.30;;;8.57;;
1446;SDS011;717;51.522;7.266;2023-06-01T09:39:04;10.88;;;9.38;;
1446;SDS011;717;51.522;7.266;2023-06-01T09:41:46;11.07;;;8.88;;
1446;SDS011;717;51.522;7.266;2023-06-01T09:44:25;12.63;;;9.18;;
1446;SDS011;717;51.522;7.266;2023-06-01T09:46:55;12.13;;;8.93;;
1446;SDS011;717;51.522;7.266;2023-06-01T09:49:28;9.77;;;8.73;;
1446;SDS011;717;51.522;7.266;2023-06-01T09:52:10;13.95;;;9.43;;
1446;SDS011;717;51.522;7.266;2023-06-01T09:54:43;12.25;;;9.18;;
1446;SDS011;717;51.522;7.266;2023-06-01T09:57:13;12.05;;;9.77;;
1446;SDS011;717;51.522;7.266;2023-06-01T09:59:48;10.25;;;9.18;;
1446;SDS011;717;51.522;7.266;2023-06-01T10:02:17;13.13;;;10.63;;
1446;SDS011;717;51.522;7.266;2023-06-01T10:04:50;12.25;;;9.15;;
1446;SDS011;717;51.522;7.266;2023-06-01T10:07:22;13.07;;;11.27;;
1446;SDS011;717;51.522;7.266;2023-06-01T10:09:51;12.35;;;9.65;;
1446;SDS011;717;51.522;7.266;2023-06-01T10:12:23;13.50;;;11.25;;
1446;SDS011;717;51.522;7.266;2023-06-01T10:14:53;16.02;;;11.82;;
1446;SDS011;717;51.522;7.266;2023-06-01T10:17:23;14.02;;;10.93;;
1446;SDS011;717;51.522;7.266;2023-06-01T10:19:55;13.30;;;10.68;;
1446;SDS011;717;51.522;7.266;2023-06-01T10:23:08;15.95;;;11.82;;
1446;SDS011;717;51.522;7.266;2023-06-01T10:25:37;14.55;;;11.50;;
1446;SDS011;717;51.522;7.266;2023-06-01T10:28:10;12.75;;;11.43;;
1446;SDS011;717;51.522;7.266;2023-06-01T10:30:40;14.73;;;12.63;;
1446;SDS011;717;51.522;7.266;2023-06-01T10:33:10;18.13;;;13.32;;
1446;SDS011;717;51.522;7.266;2023-06-01T10:38:34;15.43;;;12.68;;
1446;SDS011;717;51.522;7.266;2023-06-01T10:43:53;15.80;;;13.23;;
1446;SDS011;717;51.522;7.266;2023-06-01T10:46:35;18.58;;;15.40;;
1446;SDS011;717;51.522;7.266;2023-06-01T10:49:05;17.02;;;15.18;;
1446;SDS011;717;51.522;7.266;2023-06-01T10:51:34;18.67;;;16.55;;
1446;SDS011;717;51.522;7.266;2023-06-01T11:05:35;20.00;;;16.67;;
1446;SDS011;717;51.522;7.266;2023-06-01T11:08:04;19.38;;;16.23;;
1446;SDS011;717;51.522;7.266;2023-06-01T11:13:27;19.50;;;15.63;;
1446;SDS011;717;51.522;7.266;2023-06-01T11:18:58;18.60;;;16.60;;
1446;SDS011;717;51.522;7.266;2023-06-01T11:21:29;18.27;;;15.50;;
1446;SDS011;717;51.522;7.266;2023-06-01T11:24:00;16.40;;;14.70;;
1446;SDS011;717;51.522;7.266;2023-06-01T11:26:36;15.95;;;14.27;;
1446;SDS011;717;51.522;7.266;2023-06-01T11:29:13;17.60;;;14.57;;
1446;SDS011;717;51.522;7.266;2023-06-01T11:31:45;18.25;;;14.10;;
1446;SDS011;717;51.522;7.266;2023-06-01T11:34:16;16.20;;;14.50;;
1446;SDS011;717;51.522;7.266;2023-06-01T11:36:47;17.08;;;14.43;;
1446;SDS011;717;51.522;7.266;2023-06-01T11:39:16;18.60;;;14.73;;
1446;SDS011;717;51.522;7.266;2023-06-01T11:41:52;15.55;;;13.63;;
1446;SDS011;717;51.522;7.266;2023-06-01T11:44:33;16.45;;;14.23;;
1446;SDS011;717;51.522;7.266;2023-06-01T11:47:06;17.33;;;13.88;;
1446;SDS011;717;51.522;7.266;2023-06-01T11:49:41;15.95;;;13.50;;
1446;SDS011;717;51.522;7.266;2023-06-01T11:52:13;14.30;;;12.80;;
1446;SDS011;717;51.522;7.266;2023-06-01T11:54:42;14.50;;;12.32;;
1446;SDS011;717;51.522;7.266;2023-06-01T11:57:13;13.90;;;12.45;;
1446;SDS011;717;51.522;7.266;2023-06-01T11:59:45;12.93;;;10.88;;
1446;SDS011;717;51.522;7.266;2023-06-01T12:02:15;13.35;;;10.77;;
1446;SDS011;717;51.522;7.266;2023-06-01T12:04:54;13.35;;;10.70;;
1446;SDS011;717;51.522;7.266;2023-06-01T12:07:24;12.82;;;11.23;;
1446;SDS011;717;51.522;7.266;2023-06-01T12:09:53;13.23;;;10.45;;
1446;SDS011;717;51.522;7.266;2023-06-01T12:12:26;12.55;;;9.30;;
1446;SDS011;717;51.522;7.266;2023-06-01T12:14:58;13.30;;;10.15;;
1446;SDS011;717;51.522;7.266;2023-06-01T12:17:41;17.13;;;9.60;;
1446;SDS011;717;51.522;7.266;2023-06-01T12:20:24;10.85;;;9.52;;
1446;SDS011;717;51.522;7.266;2023-06-01T12:22:53;10.98;;;9.00;;
1446;SDS011;717;51.522;7.266;2023-06-01T12:25:23;11.07;;;8.48;;
1446;SDS011;717;51.522;7.266;2023-06-01T12:28:03;10.45;;;8.10;;
1446;SDS011;717;51.522;7.266;2023-06-01T12:30:33;11.35;;;7.93;;
1446;SDS011;717;51.522;7.266;2023-06-01T12:33:04;11.57;;;7.93;;
1446;SDS011;717;51.522;7.266;2023-06-01T12:35:32;8.38;;;6.85;;
1446;SDS011;717;51.522;7.266;2023-06-01T12:38:14;10.57;;;6.88;;
1446;SDS011;717;51.522;7.266;2023-06-01T12:40:43;8.55;;;7.45;;
1446;SDS011;717;51.522;7.266;2023-06-01T12:43:20;10.77;;;6.95;;
1446;SDS011;717;51.522;7.266;2023-06-01T12:45:49;7.93;;;6.50;;
1446;SDS011;717;51.522;7.266;2023-06-01T12:51:03;8.63;;;5.88;;
1446;SDS011;717;51.522;7.266;2023-06-01T12:53:33;7.10;;;6.40;;
1446;SDS011;717;51.522;7.266;2023-06-01T12:56:01;6.80;;;6.07;;
1446;SDS011;717;51.522;7.266;2023-06-01T12:58:33;6.90;;;6.07;;
1446;SDS011;717;51.522;7.266;2023-06-01T13:01:01;9.50;;;6.35;;
1446;SDS011;717;51.522;7.266;2023-06-01T13:03:30;8.90;;;5.93;;
1446;SDS011;717;51.522;7.266;2023-06-01T13:05:59;8.35;;;6.13;;
1446;SDS011;717;51.522;7.266;2023-06-01T13:08:28;7.75;;;6.25;;
1446;SDS011;717;51.522;7.266;2023-06-01T13:10:56;8.40;;;6.53;;
1446;SDS011;717;51.522;7.266;2023-06-01T13:13:25;11.75;;;6.60;;
1446;SDS011;717;51.522;7.266;2023-06-01T13:15:56;7.88;;;6.15;;
1446;SDS011;717;51.522;7.266;2023-06-01T13:18:25;6.68;;;5.72;;
1446;SDS011;717;51.522;7.266;2023-06-01T13:20:53;8.35;;;6.53;;
1446;SDS011;717;51.522;7.266;2023-06-01T13:23:22;6.10;;;5.50;;
1446;SDS011;717;51.522;7.266;2023-06-01T13:25:52;6.15;;;5.47;;
1446;SDS011;717;51.522;7.266;2023-06-01T13:28:21;7.32;;;5.60;;
1446;SDS011;717;51.522;7.266;2023-06-01T13:30:49;6.57;;;5.80;;
1446;SDS011;717;51.522;7.266;2023-06-01T13:33:22;6.28;;;5.45;;
1446;SDS011;717;51.522;7.266;2023-06-01T13:35:51;6.32;;;4.70;;
1446;SDS011;717;51.522;7.266;2023-06-01T13:38:19;6.25;;;5.57;;
1446;SDS011;717;51.522;7.266;2023-06-01T13:40:48;6.72;;;5.97;;
1446;SDS011;717;51.522;7.266;2023-06-01T13:43:17;10.10;;;7.03;;
1446;SDS011;717;51.522;7.266;2023-06-01T13:45:45;9.63;;;6.20;;
1446;SDS011;717;51.522;7.266;2023-06-01T13:48:14;7.30;;;5.60;;
1446;SDS011;717;51.522;7.266;2023-06-01T13:50:45;8.05;;;5.75;;
1446;SDS011;717;51.522;7.266;2023-06-01T13:53:14;8.43;;;6.00;;
1446;SDS011;717;51.522;7.266;2023-06-01T13:55:43;5.97;;;5.15;;
1446;SDS011;717;51.522;7.266;2023-06-01T13:58:12;9.18;;;6.25;;
1446;SDS011;717;51.522;7.266;2023-06-01T14:00:41;6.10;;;5.53;;
1446;SDS011;717;51.522;7.266;2023-06-01T14:03:09;7.35;;;5.90;;
1446;SDS011;717;51.522;7.266;2023-06-01T14:05:38;8.98;;;5.90;;
1446;SDS011;717;51.522;7.266;2023-06-01T14:08:09;7.10;;;5.47;;
1446;SDS011;717;51.522;7.266;2023-06-01T14:10:38;9.07;;;6.18;;
1446;SDS011;717;51.522;7.266;2023-06-01T14:13:07;8.02;;;6.57;;
1446;SDS011;717;51.522;7.266;2023-06-01T14:15:35;6.85;;;6.07;;
1446;SDS011;717;51.522;7.266;2023-06-01T14:18:04;8.25;;;5.70;;
1446;SDS011;717;51.522;7.266;2023-06-01T14:20:33;7.25;;;6.55;;
1446;SDS011;717;51.522;7.266;2023-06-01T14:23:03;6.10;;;5.60;;
1446;SDS011;717;51.522;7.266;2023-06-01T14:25:39;6.60;;;5.60;;
1446;SDS011;717;51.522;7.266;2023-06-01T14:28:07;7.30;;;6.57;;
1446;SDS011;717;51.522;7.266;2023-06-01T14:30:36;7.93;;;5.63;;
1446;SDS011;717;51.522;7.266;2023-06-01T14:33:05;6.00;;;5.40;;
1446;SDS011;717;51.522;7.266;2023-06-01T14:35:33;7.47;;;6.18;;
1446;SDS011;717;51.522;7.266;2023-06-01T14:38:02;7.55;;;5.43;;
1446;SDS011;717;51.522;7.266;2023-06-01T14:40:30;6.80;;;6.10;;
1446;SDS011;717;51.522;7.266;2023-06-01T14:43:02;8.30;;;6.43;;
1446;SDS011;717;51.522;7.266;2023-06-01T14:45:30;7.57;;;6.07;;
1446;SDS011;717;51.522;7.266;2023-06-01T14:47:59;7.75;;;6.28;;
1446;SDS011;717;51.522;7.266;2023-06-01T14:50:28;6.68;;;5.90;;
1446;SDS011;717;51.522;7.266;2023-06-01T14:52:56;6.18;;;5.32;;
1446;SDS011;717;51.522;7.266;2023-06-01T14:55:26;8.02;;;5.57;;
1446;SDS011;717;51.522;7.266;2023-06-01T14:57:55;6.28;;;5.70;;
1446;SDS011;717;51.522;7.266;2023-06-01T15:00:26;6.53;;;5.22;;
1446;SDS011;717;51.522;7.266;2023-06-01T15:02:56;7.57;;;6.35;;
1446;SDS011;717;51.522;7.266;2023-06-01T15:05:24;8.07;;;5.80;;
1446;SDS011;717;51.522;7.266;2023-06-01T15:07:53;6.50;;;5.63;;
1446;SDS011;717;51.522;7.266;2023-06-01T15:10:21;6.65;;;5.60;;
1446;SDS011;717;51.522;7.266;2023-06-01T15:12:50;6.57;;;5.00;;
1446;SDS011;717;51.522;7.266;2023-06-01T15:15:19;7.57;;;5.32;;
1446;SDS011;717;51.522;7.266;2023-06-01T15:17:50;7.97;;;5.47;;
1446;SDS011;717;51.522;7.266;2023-06-01T15:20:20;5.82;;;5.22;;
1446;SDS011;717;51.522;7.266;2023-06-01T15:22:48;6.35;;;4.82;;
1446;SDS011;717;51.522;7.266;2023-06-01T15:25:17;5.18;;;4.78;;
1446;SDS011;717;51.522;7.266;2023-06-01T15:27:45;4.72;;;4.22;;
1446;SDS011;717;51.522;7.266;2023-06-01T15:30:15;5.85;;;4.78;;
1446;SDS011;717;51.522;7.266;2023-06-01T15:32:43;5.13;;;4.53;;
1446;SDS011;717;51.522;7.266;2023-06-01T15:35:14;6.43;;;5.25;;
1446;SDS011;717;51.522;7.266;2023-06-01T15:37:43;7.40;;;4.47;;
1446;SDS011;717;51.522;7.266;2023-06-01T15:40:12;8.50;;;4.47;;
1446;SDS011;717;51.522;7.266;2023-06-01T15:42:42;7.30;;;4.53;;
1446;SDS011;717;51.522;7.266;2023-06-01T15:45:11;4.68;;;4.22;;
1446;SDS011;717;51.522;7.266;2023-06-01T15:47:39;6.13;;;4.10;;
1446;SDS011;717;51.522;7.266;2023-06-01T15:50:08;5.63;;;4.03;;
1446;SDS011;717;51.522;7.266;2023-06-01T15:52:40;4.78;;;3.47;;
1446;SDS011;717;51.522;7.266;2023-06-01T15:55:09;5.47;;;3.60;;
1446;SDS011;717;51.522;7.266;2023-06-01T15:57:37;5.55;;;3.50;;
1446;SDS011;717;51.522;7.266;2023-06-01T16:00:06;4.10;;;2.72;;
1446;SDS011;717;51.522;7.266;2023-06-01T16:02:36;8.27;;;3.53;;